Moraz — 3FVZ6 — position and weather

sailwx.info

Track history (hours):
 
Tides and Currents Weather Stations Pressure Air Temp Water Temp Dewpoint Dewpoint Depression Visibility Wind Speed Wind Dir Waves Ship Positions

Moraz

Last reported at 2018-Apr-21 05:35 UTC. Time now 2018-Apr-21 11:39 UTC.
Position N 32°53' E 035°00'.

Length 126 m; draft 8.6 m.

Type: Cargo ship. MMSI: 351118000.

Date/timePositionNaut miles runAvg speedWind from/ knotsBaromVisibWave heightAir tempDewpointWater temp
2018-Apr-21 05:35N 32°53' E 035°00'0 0.0
2018-Apr-21 05:23N 32°53' E 035°00'0 0.0
2018-Apr-21 04:59N 32°53' E 035°00'0 0.0
2018-Apr-21 04:29N 32°53' E 035°00'0 0.0
2018-Apr-21 01:23N 32°53' E 035°00'0 0.0
2018-Apr-21 00:44N 32°53' E 035°00'0 0.0
2018-Apr-21 00:14N 32°53' E 035°00'0 0.0
2018-Apr-20 21:14N 32°53' E 035°00'0 0.0
2018-Apr-20 20:53N 32°53' E 035°00'0 0.0
2018-Apr-20 20:29N 32°53' E 035°00'0 0.0
2018-Apr-20 19:59N 32°53' E 035°00'0 0.0
2018-Apr-20 15:30N 32°53' E 035°00'0 0.0
2018-Apr-20 14:41N 32°53' E 035°00'0 0.0
2018-Apr-20 14:29N 32°53' E 035°00'0 0.0
2018-Apr-20 13:59N 32°53' E 035°00'0 0.0
2018-Apr-20 13:26N 32°53' E 035°00'0 0.0
2018-Apr-20 10:38N 32°53' E 035°00'0 0.0
2018-Apr-20 10:20N 32°53' E 035°00'0 0.0
2018-Apr-20 09:56N 32°53' E 035°00'0 0.0
2018-Apr-20 08:44N 32°53' E 035°00'0 0.0
2018-Apr-20 08:26N 32°53' E 035°00'0 0.0
2018-Apr-20 07:38N 32°53' E 035°00'0 0.0
2018-Apr-20 07:20N 32°53' E 035°00'0 0.0
2018-Apr-20 06:56N 32°53' E 035°00'0 0.0
2018-Apr-20 06:20N 32°53' E 035°00'0 0.0
2018-Apr-20 05:57N 32°53' E 035°00'0 0.0
2018-Apr-20 05:20N 32°53' E 035°00'0 0.0
2018-Apr-20 04:56N 32°53' E 035°00'0 0.0
2018-Apr-20 04:29N 32°53' E 035°00'0 0.0
2018-Apr-20 03:50N 32°53' E 035°00'0 0.0
2018-Apr-20 03:26N 32°53' E 035°00'0 0.0
2018-Apr-20 02:50N 32°53' E 035°00'0 0.0
2018-Apr-19 21:26N 32°53' E 035°00'0 0.0
2018-Apr-19 20:59N 32°53' E 035°00'0 0.0
2018-Apr-19 16:13N 32°53' E 035°00'0 0.0
2018-Apr-19 15:49N 32°53' E 035°00'0 0.0
2018-Apr-19 15:20N 32°53' E 035°00'0 0.0
2018-Apr-19 13:26N 32°53' E 035°00'0 0.0
2018-Apr-19 12:35N 32°53' E 035°00'0 0.0
2018-Apr-19 12:08N 32°53' E 035°00'0 0.0
2018-Apr-19 11:45N 32°53' E 035°00'0 0.0
2018-Apr-19 08:55N 32°53' E 035°00'0 0.0
2018-Apr-19 01:40N 32°53' E 035°00'0 0.0
2018-Apr-19 01:02N 32°53' E 035°00'0 0.0
2018-Apr-19 00:56N 32°53' E 035°00'0 0.0
2018-Apr-18 21:08N 32°53' E 034°60'0 0.0
2018-Apr-18 20:38N 32°53' E 034°60'0 0.0
2018-Apr-18 19:26N 32°53' E 034°60'0 0.0
2018-Apr-18 14:53N 32°53' E 034°60'0 0.0
2018-Apr-18 14:26N 32°53' E 034°60'0 0.0
2018-Apr-18 10:29N 32°53' E 034°60'0 0.0
2018-Apr-18 06:18N 32°53' E 034°60'0 0.1
2018-Apr-18 06:00N 32°53' E 034°60'0 0.1
2018-Apr-18 04:09N 32°53' E 034°60'0 0.0
2018-Apr-18 03:09N 32°53' E 034°60'0 0.0
2018-Apr-18 02:51N 32°53' E 034°60'0 0.0
2018-Apr-18 02:04N 32°53' E 034°60'0 0.0
2018-Apr-18 01:58N 32°53' E 034°60'0 0.0
2018-Apr-17 06:13N 32°53' E 034°60'0 0.0
2018-Apr-17 03:42N 32°53' E 034°60'0 0.1
2018-Apr-17 03:27N 32°53' E 034°60'0 0.0
2018-Apr-17 02:26N 32°53' E 034°60'0 0.0
2018-Apr-17 00:05N 32°53' E 034°60'0 0.0
2018-Apr-16 21:47N 32°53' E 034°60'0 0.0
2018-Apr-16 21:20N 32°53' E 034°60'0 0.0
2018-Apr-16 19:35N 32°53' E 034°60'0 0.0
2018-Apr-16 17:50N 32°53' E 034°60'0 0.0
2018-Apr-16 17:12N 32°53' E 034°60'0 0.0
2018-Apr-16 16:56N 32°53' E 034°60'0 0.0
2018-Apr-16 16:30N 32°53' E 034°60'0 0.0
2018-Apr-16 15:35N 32°53' E 034°60'0 0.0
2018-Apr-16 15:26N 32°53' E 034°60'0 0.0
2018-Apr-16 06:53N 32°53' E 034°60'1 2.8
2018-Apr-16 06:29N 32°53' E 034°59'4 6.4
2018-Apr-16 05:56N 32°54' E 034°54'4 9.3
2018-Apr-16 05:30N 32°55' E 034°50'5 9.0
2018-Apr-16 04:59N 32°55' E 034°44'5 9.7
2018-Apr-16 04:29N 32°56' E 034°39'5 9.9
2018-Apr-16 03:59N 32°57' E 034°33'8 9.3
2018-Apr-16 03:04N 32°59' E 034°23'1 9.6
2018-Apr-16 02:57N 32°60' E 034°23'5 9.5
2018-Apr-16 02:28N 33°05' E 034°23'5 9.4
2018-Apr-16 01:58N 33°09' E 034°24'9 9.6
2018-Apr-16 01:02N 33°18' E 034°25'3 9.4
2018-Apr-16 00:42N 33°21' E 034°25'2 9.3
2018-Apr-16 00:30N 33°23' E 034°25'5 9.3
2018-Apr-15 23:58N 33°28' E 034°26'4 9.5
2018-Apr-15 23:30N 33°32' E 034°27'5 9.5
2018-Apr-15 23:01N 33°37' E 034°28'5 9.3
2018-Apr-15 22:30N 33°42' E 034°28'5 9.1
2018-Apr-15 22:00N 33°46' E 034°29'5 9.3
2018-Apr-15 21:30N 33°51' E 034°30'5 9.3
2018-Apr-15 20:57N 33°56' E 034°31'5 9.8
2018-Apr-15 20:29N 34°00' E 034°33'101 9.4
2018-Apr-15 09:44N 35°41' E 034°41'  
Track history (hours):
 
Tides and Currents Weather Stations Pressure Air Temp Water Temp Dewpoint Dewpoint Depression Visibility Wind Speed Wind Dir Waves Ship Positions

Moraz

Last reported at 2018-Apr-21 05:35 UTC. Time now 2018-Apr-21 11:39 UTC.
Position N 32°53' E 035°00'.

Length 126 m; draft 8.6 m.

Type: Cargo ship. MMSI: 351118000.

Date/timePositionNaut miles runAvg speedWind from/ knotsBaromVisibWave heightAir tempDewpointWater temp
2018-Apr-21 05:35N 32°53' E 035°00'0 0.0
2018-Apr-21 05:23N 32°53' E 035°00'0 0.0
2018-Apr-21 04:59N 32°53' E 035°00'0 0.0
2018-Apr-21 04:29N 32°53' E 035°00'0 0.0
2018-Apr-21 01:23N 32°53' E 035°00'0 0.0
2018-Apr-21 00:44N 32°53' E 035°00'0 0.0
2018-Apr-21 00:14N 32°53' E 035°00'0 0.0
2018-Apr-20 21:14N 32°53' E 035°00'0 0.0
2018-Apr-20 20:53N 32°53' E 035°00'0 0.0
2018-Apr-20 20:29N 32°53' E 035°00'0 0.0
2018-Apr-20 19:59N 32°53' E 035°00'0 0.0
2018-Apr-20 15:30N 32°53' E 035°00'0 0.0
2018-Apr-20 14:41N 32°53' E 035°00'0 0.0
2018-Apr-20 14:29N 32°53' E 035°00'0 0.0
2018-Apr-20 13:59N 32°53' E 035°00'0 0.0
2018-Apr-20 13:26N 32°53' E 035°00'0 0.0
2018-Apr-20 10:38N 32°53' E 035°00'0 0.0
2018-Apr-20 10:20N 32°53' E 035°00'0 0.0
2018-Apr-20 09:56N 32°53' E 035°00'0 0.0
2018-Apr-20 08:44N 32°53' E 035°00'0 0.0
2018-Apr-20 08:26N 32°53' E 035°00'0 0.0
2018-Apr-20 07:38N 32°53' E 035°00'0 0.0
2018-Apr-20 07:20N 32°53' E 035°00'0 0.0
2018-Apr-20 06:56N 32°53' E 035°00'0 0.0
2018-Apr-20 06:20N 32°53' E 035°00'0 0.0
2018-Apr-20 05:57N 32°53' E 035°00'0 0.0
2018-Apr-20 05:20N 32°53' E 035°00'0 0.0
2018-Apr-20 04:56N 32°53' E 035°00'0 0.0
2018-Apr-20 04:29N 32°53' E 035°00'0 0.0
2018-Apr-20 03:50N 32°53' E 035°00'0 0.0
2018-Apr-20 03:26N 32°53' E 035°00'0 0.0
2018-Apr-20 02:50N 32°53' E 035°00'0 0.0
2018-Apr-19 21:26N 32°53' E 035°00'0 0.0
2018-Apr-19 20:59N 32°53' E 035°00'0 0.0
2018-Apr-19 16:13N 32°53' E 035°00'0 0.0
2018-Apr-19 15:49N 32°53' E 035°00'0 0.0
2018-Apr-19 15:20N 32°53' E 035°00'0 0.0
2018-Apr-19 13:26N 32°53' E 035°00'0 0.0
2018-Apr-19 12:35N 32°53' E 035°00'0 0.0
2018-Apr-19 12:08N 32°53' E 035°00'0 0.0
2018-Apr-19 11:45N 32°53' E 035°00'0 0.0
2018-Apr-19 08:55N 32°53' E 035°00'0 0.0
2018-Apr-19 01:40N 32°53' E 035°00'0 0.0
2018-Apr-19 01:02N 32°53' E 035°00'0 0.0
2018-Apr-19 00:56N 32°53' E 035°00'0 0.0
2018-Apr-18 21:08N 32°53' E 034°60'0 0.0
2018-Apr-18 20:38N 32°53' E 034°60'0 0.0
2018-Apr-18 19:26N 32°53' E 034°60'0 0.0
2018-Apr-18 14:53N 32°53' E 034°60'0 0.0
2018-Apr-18 14:26N 32°53' E 034°60'0 0.0
2018-Apr-18 10:29N 32°53' E 034°60'0 0.0
2018-Apr-18 06:18N 32°53' E 034°60'0 0.1
2018-Apr-18 06:00N 32°53' E 034°60'0 0.1
2018-Apr-18 04:09N 32°53' E 034°60'0 0.0
2018-Apr-18 03:09N 32°53' E 034°60'0 0.0
2018-Apr-18 02:51N 32°53' E 034°60'0 0.0
2018-Apr-18 02:04N 32°53' E 034°60'0 0.0
2018-Apr-18 01:58N 32°53' E 034°60'0 0.0
2018-Apr-17 06:13N 32°53' E 034°60'0 0.0
2018-Apr-17 03:42N 32°53' E 034°60'0 0.1
2018-Apr-17 03:27N 32°53' E 034°60'0 0.0
2018-Apr-17 02:26N 32°53' E 034°60'0 0.0
2018-Apr-17 00:05N 32°53' E 034°60'0 0.0
2018-Apr-16 21:47N 32°53' E 034°60'0 0.0
2018-Apr-16 21:20N 32°53' E 034°60'0 0.0
2018-Apr-16 19:35N 32°53' E 034°60'0 0.0
2018-Apr-16 17:50N 32°53' E 034°60'0 0.0
2018-Apr-16 17:12N 32°53' E 034°60'0 0.0
2018-Apr-16 16:56N 32°53' E 034°60'0 0.0
2018-Apr-16 16:30N 32°53' E 034°60'0 0.0
2018-Apr-16 15:35N 32°53' E 034°60'0 0.0
2018-Apr-16 15:26N 32°53' E 034°60'0 0.0
2018-Apr-16 06:53N 32°53' E 034°60'1 2.8
2018-Apr-16 06:29N 32°53' E 034°59'4 6.4
2018-Apr-16 05:56N 32°54' E 034°54'4 9.3
2018-Apr-16 05:30N 32°55' E 034°50'5 9.0
2018-Apr-16 04:59N 32°55' E 034°44'5 9.7
2018-Apr-16 04:29N 32°56' E 034°39'5 9.9
2018-Apr-16 03:59N 32°57' E 034°33'8 9.3
2018-Apr-16 03:04N 32°59' E 034°23'1 9.6
2018-Apr-16 02:57N 32°60' E 034°23'5 9.5
2018-Apr-16 02:28N 33°05' E 034°23'5 9.4
2018-Apr-16 01:58N 33°09' E 034°24'9 9.6
2018-Apr-16 01:02N 33°18' E 034°25'3 9.4
2018-Apr-16 00:42N 33°21' E 034°25'2 9.3
2018-Apr-16 00:30N 33°23' E 034°25'5 9.3
2018-Apr-15 23:58N 33°28' E 034°26'4 9.5
2018-Apr-15 23:30N 33°32' E 034°27'5 9.5
2018-Apr-15 23:01N 33°37' E 034°28'5 9.3
2018-Apr-15 22:30N 33°42' E 034°28'5 9.1
2018-Apr-15 22:00N 33°46' E 034°29'5 9.3
2018-Apr-15 21:30N 33°51' E 034°30'5 9.3
2018-Apr-15 20:57N 33°56' E 034°31'5 9.8
2018-Apr-15 20:29N 34°00' E 034°33'101 9.4
2018-Apr-15 09:44N 35°41' E 034°41'  

Dump ship's entire track history